createdAt,value
2022-11-09T00:00:21.089Z,2.80
2022-11-09T00:02:48.169Z,3.00
2022-11-09T00:05:15.378Z,3.22
2022-11-09T00:07:42.525Z,3.22
2022-11-09T00:10:09.771Z,2.97
2022-11-09T00:12:36.920Z,3.13
2022-11-09T00:15:04.051Z,3.55
2022-11-09T00:17:31.135Z,3.50
2022-11-09T00:19:58.228Z,3.30
2022-11-09T00:22:25.272Z,3.10
2022-11-09T00:24:52.422Z,3.50
2022-11-09T00:27:19.489Z,3.30
2022-11-09T00:29:46.575Z,3.30
2022-11-09T00:32:13.725Z,3.55
2022-11-09T00:34:40.781Z,3.15
2022-11-09T00:37:07.857Z,2.97
2022-11-09T00:39:34.912Z,3.45
2022-11-09T00:42:02.002Z,3.17
2022-11-09T00:44:29.093Z,3.22
2022-11-09T00:46:56.165Z,3.60
2022-11-09T00:49:23.258Z,3.85
2022-11-09T00:51:50.429Z,3.95
2022-11-09T00:54:18.555Z,3.40
2022-11-09T00:56:45.628Z,3.15
2022-11-09T00:59:12.784Z,3.35
2022-11-09T01:01:39.968Z,3.00
2022-11-09T01:04:07.127Z,3.35
2022-11-09T01:06:34.342Z,3.28
2022-11-09T01:09:01.515Z,3.67
2022-11-09T01:11:28.631Z,3.30
2022-11-09T01:13:56.137Z,3.10
2022-11-09T01:16:23.967Z,3.17
2022-11-09T01:18:53.200Z,2.60
2022-11-09T01:21:20.370Z,2.25
2022-11-09T01:23:47.553Z,2.88
2022-11-09T01:26:15.494Z,2.25
2022-11-09T01:28:42.629Z,2.10
2022-11-09T01:31:14.167Z,2.38
2022-11-09T01:33:41.436Z,2.22
2022-11-09T01:36:10.162Z,2.20
2022-11-09T01:38:37.894Z,1.92
2022-11-09T01:41:06.153Z,1.90
2022-11-09T01:43:33.517Z,2.15
2022-11-09T01:46:06.452Z,2.05
2022-11-09T01:48:36.550Z,2.00
2022-11-09T01:51:06.648Z,1.70
2022-11-09T01:53:35.397Z,1.92
2022-11-09T01:56:03.673Z,1.70
2022-11-09T01:58:38.412Z,1.67
2022-11-09T02:01:11.085Z,1.63
2022-11-09T02:03:40.053Z,1.73
2022-11-09T02:06:09.097Z,2.00
2022-11-09T02:08:36.468Z,2.00
2022-11-09T02:11:18.520Z,1.65
2022-11-09T02:13:47.771Z,1.50
2022-11-09T02:16:15.732Z,1.63
2022-11-09T02:18:51.029Z,1.58
2022-11-09T02:21:18.180Z,2.15
2022-11-09T02:23:45.326Z,1.65
2022-11-09T02:26:16.312Z,1.50
2022-11-09T02:28:43.743Z,1.67
2022-11-09T02:31:12.783Z,1.58
2022-11-09T02:33:51.888Z,1.95
2022-11-09T02:36:18.968Z,1.77
2022-11-09T02:38:46.118Z,2.13
2022-11-09T02:41:13.693Z,2.30
2022-11-09T02:43:41.248Z,1.92
2022-11-09T02:46:08.343Z,1.85
2022-11-09T02:48:35.489Z,2.20
2022-11-09T02:51:02.552Z,2.53
2022-11-09T02:53:29.710Z,2.10
2022-11-09T02:55:56.787Z,2.22
2022-11-09T02:58:23.906Z,2.20
2022-11-09T03:00:51.060Z,2.53
2022-11-09T03:03:18.545Z,2.90
2022-11-09T03:05:45.981Z,2.92
2022-11-09T03:08:13.072Z,1.80
2022-11-09T03:10:40.141Z,1.67
2022-11-09T03:13:07.240Z,1.88
2022-11-09T03:15:35.241Z,1.73
2022-11-09T03:18:02.316Z,1.90
2022-11-09T03:20:29.404Z,1.73
2022-11-09T03:22:59.986Z,1.88
2022-11-09T03:25:27.887Z,1.80
2022-11-09T03:28:01.762Z,1.90
2022-11-09T03:30:29.236Z,1.95
2022-11-09T03:33:14.356Z,2.15
2022-11-09T03:35:41.456Z,2.10
2022-11-09T03:38:09.568Z,1.85
2022-11-09T03:40:36.849Z,2.05
2022-11-09T03:43:03.941Z,2.20
2022-11-09T03:45:31.018Z,2.13
2022-11-09T03:48:00.390Z,2.30
2022-11-09T03:50:31.592Z,2.05
2022-11-09T03:52:59.136Z,2.00
2022-11-09T03:55:26.287Z,2.25
2022-11-09T03:57:53.361Z,2.20
2022-11-09T04:00:22.082Z,2.20
2022-11-09T04:02:49.278Z,2.50
2022-11-09T04:05:16.480Z,2.65
2022-11-09T04:07:53.958Z,2.92
2022-11-09T04:10:21.540Z,2.67
2022-11-09T04:12:48.711Z,2.78
2022-11-09T04:15:16.242Z,2.70
2022-11-09T04:17:44.742Z,3.00
2022-11-09T04:20:12.314Z,3.03
2022-11-09T04:22:39.522Z,2.95
2022-11-09T04:25:06.856Z,2.90
2022-11-09T04:27:33.950Z,3.20
2022-11-09T04:30:01.014Z,3.22
2022-11-09T04:32:28.112Z,2.85
2022-11-09T04:34:55.209Z,3.50
2022-11-09T04:37:22.307Z,2.92
2022-11-09T04:39:49.368Z,3.45
2022-11-09T04:42:16.522Z,3.53
2022-11-09T04:44:43.592Z,3.67
2022-11-09T04:47:10.694Z,4.30
2022-11-09T04:49:37.775Z,4.45
2022-11-09T04:52:04.971Z,4.00
2022-11-09T04:54:32.102Z,3.92
2022-11-09T04:56:59.206Z,4.70
2022-11-09T04:59:26.300Z,4.22
2022-11-09T05:01:53.352Z,4.30
2022-11-09T05:04:20.446Z,4.32
2022-11-09T05:06:47.602Z,5.43
2022-11-09T05:09:14.675Z,5.45
2022-11-09T05:11:42.904Z,6.28
2022-11-09T05:14:09.998Z,6.10
2022-11-09T05:16:37.070Z,6.97
2022-11-09T05:19:04.140Z,7.40
2022-11-09T05:21:31.262Z,7.88
2022-11-09T05:24:01.495Z,7.68
2022-11-09T05:26:32.918Z,7.03
2022-11-09T05:29:00.848Z,7.20
2022-11-09T05:31:28.289Z,6.90
2022-11-09T05:33:55.804Z,7.78
2022-11-09T05:36:22.937Z,7.53
2022-11-09T05:38:50.577Z,6.95
2022-11-09T05:41:17.851Z,7.75
2022-11-09T05:43:45.641Z,6.78
2022-11-09T05:46:13.436Z,7.50
2022-11-09T05:48:40.943Z,7.80
2022-11-09T05:51:09.349Z,7.85
2022-11-09T05:53:36.670Z,7.80
2022-11-09T05:56:05.114Z,8.32
2022-11-09T05:58:36.129Z,7.88
2022-11-09T06:01:04.748Z,7.50
2022-11-09T06:03:31.902Z,7.95
2022-11-09T06:06:07.851Z,7.15
2022-11-09T06:08:35.592Z,8.15
2022-11-09T06:11:03.960Z,7.45
2022-11-09T06:13:31.401Z,6.97
2022-11-09T06:15:59.190Z,7.72
2022-11-09T06:18:26.851Z,8.02
2022-11-09T06:20:54.605Z,9.57
2022-11-09T06:23:29.255Z,10.02
2022-11-09T06:25:59.399Z,18.80
2022-11-09T06:28:26.880Z,24.95
2022-11-09T06:30:54.481Z,26.73
2022-11-09T06:33:22.005Z,16.02
2022-11-09T06:35:54.938Z,12.43
2022-11-09T06:38:23.130Z,9.27
2022-11-09T06:40:53.726Z,8.25
2022-11-09T06:43:21.213Z,9.40
2022-11-09T06:45:48.953Z,13.52
2022-11-09T06:48:16.089Z,10.68
2022-11-09T06:50:43.142Z,10.32
2022-11-09T06:53:11.670Z,10.27
2022-11-09T06:55:39.168Z,11.05
2022-11-09T06:58:10.619Z,10.00
2022-11-09T07:00:38.252Z,10.07
2022-11-09T07:03:05.568Z,11.20
2022-11-09T07:05:32.778Z,11.15
2022-11-09T07:07:59.878Z,9.38
2022-11-09T07:10:26.997Z,9.73
2022-11-09T07:12:54.115Z,10.40
2022-11-09T07:15:21.227Z,11.15
2022-11-09T07:17:49.153Z,12.40
2022-11-09T07:20:16.414Z,12.80
2022-11-09T07:22:43.580Z,11.95
2022-11-09T07:25:12.638Z,9.63
2022-11-09T07:27:39.727Z,9.27
2022-11-09T07:30:07.414Z,7.95
2022-11-09T07:33:06.868Z,8.10
2022-11-09T07:35:22.234Z,6.88
2022-11-09T07:37:49.353Z,7.30
2022-11-09T07:40:16.482Z,6.53
2022-11-09T07:42:43.573Z,6.68
2022-11-09T07:45:10.775Z,6.18
2022-11-09T07:47:38.073Z,6.07
2022-11-09T07:50:05.338Z,6.32
2022-11-09T07:52:32.525Z,5.10
2022-11-09T07:54:59.672Z,5.80
2022-11-09T07:57:26.743Z,5.45
2022-11-09T07:59:54.055Z,5.78
2022-11-09T08:02:21.542Z,5.18
2022-11-09T08:04:48.670Z,4.50
2022-11-09T08:07:15.847Z,4.55
2022-11-09T08:09:42.978Z,5.38
2022-11-09T08:12:10.139Z,5.10
2022-11-09T08:14:37.205Z,5.22
2022-11-09T08:17:04.317Z,4.45
2022-11-09T08:19:31.373Z,4.70
2022-11-09T08:21:58.527Z,4.97
2022-11-09T08:24:25.593Z,4.55
2022-11-09T08:26:52.666Z,4.35
2022-11-09T08:29:19.933Z,4.93
2022-11-09T08:31:49.342Z,4.43
2022-11-09T08:34:16.426Z,4.30
2022-11-09T08:36:43.528Z,4.00
2022-11-09T08:39:10.643Z,3.80
2022-11-09T08:41:37.818Z,2.63
2022-11-09T08:44:04.920Z,2.58
2022-11-09T08:46:32.682Z,2.40
2022-11-09T08:49:01.893Z,2.40
2022-11-09T08:51:28.994Z,3.35
2022-11-09T08:53:56.933Z,3.10
2022-11-09T08:56:24.008Z,2.97
2022-11-09T08:58:51.092Z,3.38
2022-11-09T09:01:18.164Z,3.80
2022-11-09T09:03:46.657Z,3.90
2022-11-09T09:06:13.757Z,3.90
2022-11-09T09:08:40.889Z,4.10
2022-11-09T09:11:07.942Z,3.70
2022-11-09T09:13:37.803Z,4.10
2022-11-09T09:16:09.841Z,3.95
2022-11-09T09:18:36.965Z,3.38
2022-11-09T09:21:06.277Z,3.78
2022-11-09T09:23:33.389Z,3.90
2022-11-09T09:26:00.526Z,3.85
2022-11-09T09:28:27.719Z,3.65
2022-11-09T09:30:54.849Z,4.00
2022-11-09T09:33:21.953Z,4.15
2022-11-09T09:35:49.084Z,4.32
2022-11-09T09:38:16.157Z,4.28
2022-11-09T09:40:50.334Z,4.07
2022-11-09T09:43:22.951Z,4.50
2022-11-09T09:45:52.558Z,4.95
2022-11-09T09:48:36.751Z,5.50
2022-11-09T09:51:07.593Z,5.57
2022-11-09T09:53:37.436Z,4.88
2022-11-09T09:56:06.827Z,5.50
2022-11-09T09:58:35.024Z,5.20
2022-11-09T10:01:13.158Z,5.35
2022-11-09T10:03:40.356Z,5.13
2022-11-09T10:06:13.318Z,5.18
2022-11-09T10:08:50.962Z,5.05
2022-11-09T10:11:29.446Z,5.22
2022-11-09T10:13:56.535Z,5.57
2022-11-09T10:16:26.342Z,4.72
2022-11-09T10:19:08.530Z,4.35
2022-11-09T10:21:54.118Z,3.25
2022-11-09T10:24:30.396Z,3.22
2022-11-09T10:26:58.562Z,3.22
2022-11-09T10:29:35.630Z,5.35
2022-11-09T10:32:22.966Z,2.83
2022-11-09T10:34:54.806Z,5.28
2022-11-09T10:37:21.866Z,3.10
2022-11-09T10:40:05.771Z,3.13
2022-11-09T10:42:32.831Z,2.80
2022-11-09T10:45:01.038Z,2.20
2022-11-09T10:47:28.193Z,1.90
2022-11-09T10:50:13.854Z,2.42
2022-11-09T10:52:46.154Z,1.70
2022-11-09T10:55:22.693Z,1.92
2022-11-09T10:58:22.893Z,3.17
2022-11-09T11:01:00.785Z,8.38
2022-11-09T11:03:28.426Z,3.53
2022-11-09T11:06:18.997Z,4.70
2022-11-09T11:08:47.349Z,3.05
2022-11-09T11:11:39.115Z,3.50
2022-11-09T11:14:19.902Z,2.22
2022-11-09T11:16:50.653Z,1.30
2022-11-09T11:19:26.645Z,1.00
2022-11-09T11:22:18.989Z,0.95
2022-11-09T11:25:06.321Z,0.90
2022-11-09T11:27:38.195Z,1.33
2022-11-09T11:30:05.321Z,1.20
2022-11-09T11:32:32.514Z,1.30
2022-11-09T11:35:00.997Z,1.58
2022-11-09T11:37:37.675Z,1.52
2022-11-09T11:40:06.931Z,1.20
2022-11-09T11:42:43.177Z,1.55
2022-11-09T11:48:21.665Z,1.40
2022-11-09T11:50:59.853Z,1.30
2022-11-09T11:53:37.260Z,1.00
2022-11-09T11:56:25.237Z,1.20
2022-11-09T11:58:52.665Z,1.10
2022-11-09T12:01:25.861Z,1.20
2022-11-09T12:03:55.739Z,1.27
2022-11-09T12:06:34.230Z,1.20
2022-11-09T12:09:04.211Z,1.17
2022-11-09T12:11:49.963Z,1.40
2022-11-09T12:14:23.088Z,1.40
2022-11-09T12:16:53.962Z,1.70
2022-11-09T12:19:34.325Z,1.40
2022-11-09T12:22:18.769Z,2.10
2022-11-09T12:24:58.080Z,1.45
2022-11-09T12:27:32.914Z,1.63
2022-11-09T12:30:06.502Z,1.70
2022-11-09T12:32:52.224Z,1.92
2022-11-09T12:35:38.874Z,1.67
2022-11-09T12:38:15.169Z,1.45
2022-11-09T12:40:48.190Z,2.20
2022-11-09T12:43:41.453Z,1.80
2022-11-09T12:46:10.673Z,1.80
2022-11-09T12:48:37.772Z,1.83
2022-11-09T12:51:05.692Z,2.55
2022-11-09T12:53:36.592Z,1.95
2022-11-09T12:56:03.708Z,1.90
2022-11-09T12:58:35.599Z,1.92
2022-11-09T13:01:03.977Z,2.13
2022-11-09T13:03:32.506Z,2.05
2022-11-09T13:06:09.985Z,1.92
2022-11-09T13:08:37.809Z,2.35
2022-11-09T13:11:18.777Z,2.15
2022-11-09T13:13:46.235Z,1.63
2022-11-09T13:16:33.277Z,1.65
2022-11-09T13:19:00.395Z,1.73
2022-11-09T13:21:27.513Z,1.67
2022-11-09T13:24:01.186Z,1.80
2022-11-09T13:26:32.439Z,1.80
2022-11-09T13:29:18.211Z,2.03
2022-11-09T13:32:00.605Z,1.75
2022-11-09T13:34:47.261Z,1.60
2022-11-09T13:37:53.017Z,1.80
2022-11-09T13:40:32.318Z,1.67
2022-11-09T13:43:06.969Z,1.60
2022-11-09T13:45:34.028Z,1.65
2022-11-09T13:48:01.119Z,2.20
2022-11-09T13:50:29.612Z,2.20
2022-11-09T13:52:58.710Z,2.20
2022-11-09T13:55:42.255Z,1.90
2022-11-09T13:58:29.730Z,2.80
2022-11-09T14:00:57.467Z,2.40
2022-11-09T14:03:28.871Z,2.33
2022-11-09T14:05:58.057Z,2.53
2022-11-09T14:08:26.692Z,1.88
2022-11-09T14:10:53.725Z,2.03
2022-11-09T14:13:26.616Z,1.92
2022-11-09T14:16:12.092Z,1.90
2022-11-09T14:19:02.567Z,1.60
2022-11-09T14:21:49.563Z,1.98
2022-11-09T14:24:21.309Z,2.47
2022-11-09T14:27:00.397Z,2.20
2022-11-09T14:29:30.089Z,2.58
2022-11-09T14:31:57.188Z,2.83
2022-11-09T14:34:24.297Z,2.80
2022-11-09T14:36:51.405Z,3.20
2022-11-09T14:39:27.678Z,3.47
2022-11-09T14:41:55.267Z,3.90
2022-11-09T14:44:35.683Z,3.55
2022-11-09T14:47:02.885Z,3.10
2022-11-09T14:49:30.292Z,2.80
2022-11-09T14:51:57.373Z,2.78
2022-11-09T14:54:25.614Z,3.20
2022-11-09T14:56:53.845Z,3.03
2022-11-09T14:59:25.051Z,4.32
2022-11-09T15:02:01.239Z,3.22
2022-11-09T15:04:28.645Z,3.08
2022-11-09T15:07:00.519Z,2.47
2022-11-09T15:09:43.095Z,3.10
2022-11-09T15:12:16.887Z,2.70
2022-11-09T15:14:48.781Z,3.00
2022-11-09T15:17:17.048Z,2.63
2022-11-09T15:19:53.014Z,3.40
2022-11-09T15:22:38.815Z,3.10
2022-11-09T15:25:38.518Z,3.05
2022-11-09T15:28:14.656Z,2.97
2022-11-09T15:30:46.230Z,4.07
2022-11-09T15:33:20.501Z,3.17
2022-11-09T15:35:51.712Z,3.70
2022-11-09T15:38:38.020Z,2.85
2022-11-09T15:41:10.385Z,3.28
2022-11-09T15:43:38.248Z,3.65
2022-11-09T15:46:05.598Z,4.45
2022-11-09T15:48:32.850Z,3.55
2022-11-09T15:51:00.031Z,3.45
2022-11-09T15:53:27.664Z,4.07
2022-11-09T15:55:54.747Z,3.28
2022-11-09T15:58:22.166Z,4.00
2022-11-09T16:00:49.605Z,4.00
2022-11-09T16:03:17.834Z,3.65
2022-11-09T16:05:48.050Z,3.60
2022-11-09T16:08:15.180Z,3.58
2022-11-09T16:10:43.380Z,3.75
2022-11-09T16:13:10.899Z,3.88
2022-11-09T16:15:38.548Z,3.70
2022-11-09T16:18:06.173Z,3.75
2022-11-09T16:20:33.295Z,3.35
2022-11-09T16:23:00.413Z,3.95
2022-11-09T16:25:28.622Z,4.18
2022-11-09T16:27:55.710Z,4.22
2022-11-09T16:30:22.882Z,3.72
2022-11-09T16:32:50.061Z,9.02
2022-11-09T16:35:27.098Z,11.68
2022-11-09T16:37:55.179Z,9.95
2022-11-09T16:40:23.151Z,9.55
2022-11-09T16:42:51.570Z,10.70
2022-11-09T16:45:18.676Z,6.55
2022-11-09T16:47:53.886Z,3.55
2022-11-09T16:50:21.059Z,3.80
2022-11-09T16:52:48.177Z,4.20
2022-11-09T16:56:37.085Z,4.88
2022-11-09T16:59:04.195Z,3.47
2022-11-09T17:01:31.334Z,3.20
2022-11-09T17:03:58.624Z,3.00
2022-11-09T17:06:26.327Z,2.75
2022-11-09T17:08:56.555Z,3.90
2022-11-09T17:11:24.030Z,6.30
2022-11-09T17:14:00.528Z,5.55
2022-11-09T17:16:27.900Z,6.80
2022-11-09T17:18:55.722Z,5.65
2022-11-09T17:21:23.653Z,5.80
2022-11-09T17:23:51.181Z,5.72
2022-11-09T17:26:18.808Z,6.40
2022-11-09T17:28:46.007Z,5.72
2022-11-09T17:31:22.291Z,6.03
2022-11-09T17:33:49.646Z,7.45
2022-11-09T17:36:29.673Z,6.40
2022-11-09T17:39:04.788Z,6.15
2022-11-09T17:41:31.916Z,7.10
2022-11-09T17:44:01.783Z,12.73
2022-11-09T17:46:28.879Z,10.13
2022-11-09T17:48:56.080Z,9.27
2022-11-09T17:51:23.655Z,11.20
2022-11-09T17:53:50.751Z,11.38
2022-11-09T17:56:17.908Z,10.55
2022-11-09T17:58:46.113Z,10.55
2022-11-09T18:01:15.464Z,11.25
2022-11-09T18:03:43.091Z,11.90
2022-11-09T18:06:14.171Z,9.25
2022-11-09T18:08:42.334Z,8.40
2022-11-09T18:11:09.457Z,8.25
2022-11-09T18:13:36.929Z,8.95
2022-11-09T18:16:17.158Z,8.00
2022-11-09T18:18:44.972Z,9.30
2022-11-09T18:21:16.753Z,8.68
2022-11-09T18:23:44.546Z,10.07
2022-11-09T18:26:12.159Z,9.95
2022-11-09T18:28:39.890Z,10.77
2022-11-09T18:31:08.726Z,11.23
2022-11-09T18:33:35.861Z,14.43
2022-11-09T18:36:04.705Z,13.15
2022-11-09T18:38:32.295Z,14.23
2022-11-09T18:41:00.912Z,15.13
2022-11-09T18:43:28.482Z,13.70
2022-11-09T18:45:59.320Z,14.65
2022-11-09T18:48:26.908Z,14.65
2022-11-09T18:50:54.446Z,14.23
2022-11-09T18:53:22.596Z,14.13
2022-11-09T18:55:50.475Z,14.57
2022-11-09T18:58:18.493Z,13.82
2022-11-09T19:00:45.890Z,14.32
2022-11-09T19:03:16.286Z,13.80
2022-11-09T19:05:44.116Z,16.23
2022-11-09T19:08:11.293Z,22.35
2022-11-09T19:10:38.446Z,13.65
2022-11-09T19:13:06.160Z,14.95
2022-11-09T19:15:38.577Z,13.32
2022-11-09T19:18:05.911Z,15.95
2022-11-09T19:20:33.072Z,15.77
2022-11-09T19:23:00.126Z,13.80
2022-11-09T19:25:27.231Z,14.48
2022-11-09T19:27:54.329Z,18.65
2022-11-09T19:30:25.394Z,13.55
2022-11-09T19:32:52.566Z,14.18
2022-11-09T19:35:25.569Z,13.77
2022-11-09T19:37:54.486Z,14.10
2022-11-09T19:40:21.659Z,14.32
2022-11-09T19:42:48.796Z,12.98
2022-11-09T19:45:15.941Z,14.02
2022-11-09T19:47:43.053Z,14.90
2022-11-09T19:50:10.177Z,12.82
2022-11-09T19:52:38.763Z,16.30
2022-11-09T19:55:06.160Z,15.00
2022-11-09T19:57:33.225Z,32.00
2022-11-09T20:00:00.287Z,14.98
2022-11-09T20:02:27.386Z,18.77
2022-11-09T20:04:54.523Z,15.15
2022-11-09T20:07:21.898Z,12.63
2022-11-09T20:09:48.975Z,10.65
2022-11-09T20:12:34.943Z,13.13
2022-11-09T20:15:02.025Z,9.73
2022-11-09T20:17:29.152Z,9.90
2022-11-09T20:19:56.229Z,8.90
2022-11-09T20:22:23.326Z,6.95
2022-11-09T20:24:50.617Z,6.28
2022-11-09T20:27:17.785Z,5.47
2022-11-09T20:29:44.875Z,5.93
2022-11-09T20:32:12.413Z,4.63
2022-11-09T20:34:39.644Z,4.53
2022-11-09T20:37:07.667Z,4.78
2022-11-09T20:39:35.350Z,5.18
2022-11-09T20:42:02.453Z,6.60
2022-11-09T20:44:29.558Z,5.82
2022-11-09T20:46:56.697Z,5.10
2022-11-09T20:49:23.774Z,5.88
2022-11-09T20:51:50.869Z,5.72
2022-11-09T20:54:17.980Z,4.28
2022-11-09T20:56:45.633Z,5.45
2022-11-09T20:59:12.745Z,5.22
2022-11-09T21:01:39.905Z,4.20
2022-11-09T21:04:07.013Z,3.70
2022-11-09T21:06:34.207Z,4.25
2022-11-09T21:09:01.513Z,4.10
2022-11-09T21:11:34.893Z,3.80
2022-11-09T21:14:02.011Z,4.15
2022-11-09T21:16:29.643Z,4.70
2022-11-09T21:18:56.913Z,4.43
2022-11-09T21:21:24.843Z,4.45
2022-11-09T21:24:10.374Z,4.63
2022-11-09T21:26:56.176Z,4.43
2022-11-09T21:29:43.071Z,4.70
2022-11-09T21:32:11.453Z,5.32
2022-11-09T21:34:38.547Z,5.03
2022-11-09T21:37:05.870Z,5.35
2022-11-09T21:39:33.318Z,4.82
2022-11-09T21:42:00.930Z,5.28
2022-11-09T21:44:29.006Z,6.30
2022-11-09T21:46:56.125Z,5.43
2022-11-09T21:49:23.201Z,3.42
2022-11-09T21:51:50.337Z,3.53
2022-11-09T21:54:17.494Z,4.22
2022-11-09T21:56:44.649Z,3.47
2022-11-09T21:59:13.188Z,3.42
2022-11-09T22:01:41.053Z,2.95
2022-11-09T22:04:08.565Z,2.28
2022-11-09T22:06:39.133Z,2.58
2022-11-09T22:09:06.937Z,2.42
2022-11-09T22:11:53.050Z,3.40
2022-11-09T22:14:39.630Z,3.00
2022-11-09T22:17:10.343Z,2.65
2022-11-09T22:19:57.592Z,2.97
2022-11-09T22:22:25.201Z,3.10
2022-11-09T22:24:52.327Z,3.28
2022-11-09T22:27:19.456Z,3.50
2022-11-09T22:29:46.546Z,3.13
2022-11-09T22:32:13.658Z,3.55
2022-11-09T22:34:40.775Z,3.90
2022-11-09T22:37:08.699Z,3.17
2022-11-09T22:39:35.785Z,4.00
2022-11-09T22:42:02.866Z,4.13
2022-11-09T22:44:30.485Z,5.88
2022-11-09T22:46:57.574Z,4.38
2022-11-09T22:49:24.750Z,4.10
2022-11-09T22:51:53.450Z,4.22
2022-11-09T22:54:23.590Z,4.13
2022-11-09T22:56:50.748Z,3.80
2022-11-09T22:59:18.014Z,4.03
2022-11-09T23:01:45.136Z,4.55
2022-11-09T23:04:12.748Z,3.90
2022-11-09T23:06:40.018Z,5.72
2022-11-09T23:09:07.572Z,5.05
2022-11-09T23:11:34.704Z,4.82
2022-11-09T23:14:01.795Z,4.68
2022-11-09T23:16:29.651Z,6.53
2022-11-09T23:18:56.758Z,4.93
2022-11-09T23:21:34.662Z,5.63
2022-11-09T23:24:06.015Z,5.10
2022-11-09T23:26:34.092Z,5.35
2022-11-09T23:29:01.404Z,5.90
2022-11-09T23:31:28.582Z,8.13
2022-11-09T23:33:56.790Z,5.95
2022-11-09T23:36:24.677Z,14.73
2022-11-09T23:38:52.102Z,6.10
2022-11-09T23:41:19.549Z,7.47
2022-11-09T23:43:49.523Z,6.65
2022-11-09T23:46:17.889Z,10.45
2022-11-09T23:48:45.313Z,8.57
2022-11-09T23:51:12.450Z,6.95
2022-11-09T23:53:39.935Z,7.90
2022-11-09T23:56:08.985Z,8.18
2022-11-09T23:58:36.471Z,8.30
